Time;durP1;ratioP1;P1;durP2;ratioP2;P2;SDS_P1;SDS_P2;PMS_P1;PMS_P2;Temp;Humidity;BMP_temperature;BMP_pressure;BME280_temperature;BME280_humidity;BME280_pressure;Samples;Min_cycle;Max_cycle;Signal;HPM_P1;HPM_P2
2023/11/10 00:00:11;;;;;;;7.57;5.70;;;9.10;83.80;;;;;;4977749;28;20031;-65
2023/11/10 00:02:38;;;;;;;6.47;5.73;;;9.20;83.90;;;;;;4976605;28;20461;-65
2023/11/10 00:05:05;;;;;;;6.38;5.30;;;9.20;83.60;;;;;;4977466;28;20274;-65
2023/11/10 00:07:31;;;;;;;6.43;5.60;;;9.10;83.50;;;;;;4977172;28;20089;-64
2023/11/10 00:09:56;;;;;;;5.90;5.30;;;9.10;83.40;;;;;;4976753;28;20034;-65
2023/11/10 00:12:22;;;;;;;6.57;5.20;;;9.10;83.30;;;;;;4976792;28;20034;-65
2023/11/10 00:14:48;;;;;;;5.40;4.90;;;9.10;83.30;;;;;;4977731;28;20401;-65
2023/11/10 00:17:13;;;;;;;5.47;4.57;;;9.10;83.30;;;;;;4977318;28;20031;-65
2023/11/10 00:19:45;;;;;;;4.68;4.28;;;9.10;83.20;;;;;;4977478;28;20050;-64
2023/11/10 00:22:11;;;;;;;4.97;4.47;;;9.10;83.30;;;;;;4977542;28;20037;-65
2023/11/10 00:24:40;;;;;;;5.00;4.50;;;9.10;83.30;;;;;;4976910;28;20069;-65
2023/11/10 00:27:10;;;;;;;4.97;4.38;;;9.10;83.20;;;;;;4977194;28;20033;-65
2023/11/10 00:29:40;;;;;;;5.53;5.03;;;9.10;83.20;;;;;;4976984;28;20106;-65
2023/11/10 00:32:07;;;;;;;6.07;5.22;;;9.10;83.20;;;;;;4977957;28;20065;-64
2023/11/10 00:34:33;;;;;;;5.80;4.97;;;9.10;83.20;;;;;;4976255;28;20034;-65
2023/11/10 00:37:01;;;;;;;5.97;5.10;;;9.20;83.30;;;;;;4976962;28;20035;-65
2023/11/10 00:39:27;;;;;;;6.00;5.30;;;9.10;83.00;;;;;;4977413;28;20030;-65
2023/11/10 00:41:53;;;;;;;6.65;5.63;;;9.20;83.00;;;;;;4976960;28;20537;-65
2023/11/10 00:44:18;;;;;;;6.70;5.80;;;9.20;82.90;;;;;;4977262;28;20062;-65
2023/11/10 00:46:44;;;;;;;6.85;5.85;;;9.20;82.90;;;;;;4977090;28;20332;-65
2023/11/10 00:49:10;;;;;;;7.90;5.68;;;9.20;82.90;;;;;;4980686;28;20038;-65
2023/11/10 00:51:36;;;;;;;9.63;6.13;;;9.20;82.90;;;;;;4980680;28;20027;-65
2023/11/10 00:54:03;;;;;;;7.75;6.32;;;9.20;82.90;;;;;;4980617;28;20034;-65
2023/11/10 00:56:29;;;;;;;9.10;6.47;;;9.20;82.90;;;;;;4980583;28;20077;-65
2023/11/10 00:58:54;;;;;;;6.47;5.88;;;9.20;83.00;;;;;;4980287;28;20038;-65
2023/11/10 01:01:20;;;;;;;6.97;6.28;;;9.10;82.90;;;;;;4980464;28;20494;-64
2023/11/10 01:03:46;;;;;;;7.82;5.90;;;9.10;82.90;;;;;;4979819;28;20034;-65
2023/11/10 01:06:11;;;;;;;6.95;6.25;;;9.10;83.00;;;;;;4980280;28;20507;-65
2023/11/10 01:08:37;;;;;;;7.15;6.22;;;9.10;83.10;;;;;;4979344;28;20034;-65
2023/11/10 01:11:03;;;;;;;7.82;6.50;;;9.10;83.10;;;;;;4980889;28;20035;-65
2023/11/10 01:13:28;;;;;;;8.55;6.55;;;9.00;83.00;;;;;;4979797;28;20027;-64
2023/11/10 01:15:54;;;;;;;8.70;6.63;;;9.00;83.10;;;;;;4979410;28;20093;-65
2023/11/10 01:18:19;;;;;;;7.93;6.38;;;9.00;83.10;;;;;;4979945;28;20050;-65
2023/11/10 01:20:46;;;;;;;7.32;6.63;;;9.00;83.20;;;;;;4979749;28;20031;-64
2023/11/10 01:23:12;;;;;;;7.35;6.32;;;9.00;83.20;;;;;;4981067;28;20041;-65
2023/11/10 01:25:37;;;;;;;7.80;7.00;;;9.00;83.20;;;;;;4979990;28;20031;-65
2023/11/10 01:28:03;;;;;;;6.80;6.13;;;9.00;83.30;;;;;;4980029;28;20561;-65
2023/11/10 01:30:28;;;;;;;7.30;6.35;;;8.90;83.30;;;;;;4979510;28;20118;-65
2023/11/10 01:32:55;;;;;;;7.32;6.20;;;8.90;83.40;;;;;;4979965;28;20026;-65
2023/11/10 01:35:20;;;;;;;7.43;6.60;;;9.00;83.50;;;;;;4979374;28;20030;-65
2023/11/10 01:37:46;;;;;;;7.05;6.32;;;8.90;83.50;;;;;;4979933;28;20180;-65
2023/11/10 01:40:12;;;;;;;7.60;6.45;;;9.00;83.50;;;;;;4980044;28;20030;-65
2023/11/10 01:42:40;;;;;;;7.28;6.47;;;9.00;83.40;;;;;;4968854;28;20062;-65
2023/11/10 01:45:06;;;;;;;7.53;6.32;;;9.00;83.20;;;;;;4979340;28;20036;-65
2023/11/10 01:47:31;;;;;;;7.45;6.55;;;9.00;83.10;;;;;;4980028;28;20042;-64
2023/11/10 01:49:58;;;;;;;8.63;6.55;;;9.00;83.10;;;;;;4979836;28;20181;-65
2023/11/10 01:52:25;;;;;;;7.63;6.63;;;9.00;83.10;;;;;;4978758;28;20047;-64
2023/11/10 01:54:51;;;;;;;8.80;6.43;;;8.90;83.10;;;;;;4978514;28;20039;-65
2023/11/10 01:57:17;;;;;;;7.97;6.75;;;8.90;82.90;;;;;;4979508;28;20034;-65
2023/11/10 01:59:46;;;;;;;8.20;6.55;;;8.90;82.90;;;;;;4978629;28;20113;-64
2023/11/10 02:02:12;;;;;;;7.32;6.38;;;8.80;82.90;;;;;;4986721;28;20022;-65
2023/11/10 02:04:38;;;;;;;7.68;6.80;;;8.80;82.90;;;;;;4979533;28;20034;-65
2023/11/10 02:07:04;;;;;;;7.63;6.80;;;8.70;82.90;;;;;;4978789;28;20046;-64
2023/11/10 02:09:30;;;;;;;7.47;6.40;;;8.70;83.00;;;;;;4978605;28;20530;-65
2023/11/10 02:11:56;;;;;;;9.50;7.10;;;8.60;83.00;;;;;;4977455;28;20781;-65
2023/11/10 02:14:21;;;;;;;8.77;7.00;;;8.60;83.20;;;;;;4979555;28;20054;-65
2023/11/10 02:16:47;;;;;;;8.63;6.80;;;8.60;83.30;;;;;;4978539;28;20066;-65
2023/11/10 02:19:15;;;;;;;7.47;6.65;;;8.50;83.40;;;;;;4979104;28;20502;-65
2023/11/10 02:21:41;;;;;;;8.02;6.35;;;8.50;83.60;;;;;;4979219;28;20054;-65
2023/11/10 02:24:08;;;;;;;8.23;6.80;;;8.40;83.70;;;;;;4978720;28;20030;-65
2023/11/10 02:26:34;;;;;;;9.15;6.75;;;8.40;83.80;;;;;;4977944;28;20038;-65
2023/11/10 02:29:00;;;;;;;8.20;6.95;;;8.40;83.90;;;;;;4978928;28;20040;-64
2023/11/10 02:31:26;;;;;;;8.05;6.90;;;8.40;84.00;;;;;;4978976;28;20034;-64
2023/11/10 02:33:53;;;;;;;7.97;6.55;;;8.40;84.10;;;;;;4978666;28;20038;-65
2023/11/10 02:36:20;;;;;;;7.68;6.38;;;8.40;84.10;;;;;;4977442;28;20129;-64
2023/11/10 02:38:46;;;;;;;7.57;6.55;;;8.30;84.30;;;;;;4978053;28;20041;-65
2023/11/10 02:41:14;;;;;;;7.95;6.45;;;8.30;84.30;;;;;;4978309;28;20038;-65
2023/11/10 02:43:40;;;;;;;6.63;5.78;;;8.30;84.50;;;;;;4978183;28;20042;-64
2023/11/10 02:46:06;;;;;;;8.05;6.07;;;8.30;84.40;;;;;;4977889;28;20033;-65
2023/11/10 02:48:32;;;;;;;6.80;6.10;;;8.30;84.50;;;;;;4978255;28;20529;-64
2023/11/10 02:50:58;;;;;;;8.00;6.45;;;8.30;84.60;;;;;;4977856;28;20022;-64
2023/11/10 02:53:23;;;;;;;6.90;6.20;;;8.30;84.80;;;;;;4977689;28;20121;-65
2023/11/10 02:55:49;;;;;;;6.82;5.80;;;8.30;84.90;;;;;;4978314;28;20162;-65
2023/11/10 02:58:18;;;;;;;6.28;5.68;;;8.30;85.00;;;;;;4978584;28;20045;-64
2023/11/10 03:00:44;;;;;;;6.28;5.40;;;8.40;85.00;;;;;;4977624;28;20038;-64
2023/11/10 03:03:12;;;;;;;6.18;5.10;;;8.40;85.10;;;;;;4978128;28;20041;-65
2023/11/10 03:05:39;;;;;;;6.07;5.07;;;8.50;85.20;;;;;;4978357;28;20147;-65
2023/11/10 03:08:05;;;;;;;5.53;4.85;;;8.50;85.20;;;;;;4977097;28;20498;-65
2023/11/10 03:10:31;;;;;;;5.05;4.53;;;8.50;85.30;;;;;;4975899;28;20467;-65
2023/11/10 03:12:57;;;;;;;4.95;4.10;;;8.60;85.30;;;;;;4978240;28;20116;-65
2023/11/10 03:15:22;;;;;;;4.85;3.92;;;8.60;85.30;;;;;;4977674;28;20041;-64
2023/11/10 03:17:48;;;;;;;7.18;4.32;;;8.60;85.20;;;;;;4977661;28;20050;-64
2023/11/10 03:20:16;;;;;;;4.38;3.97;;;8.70;85.30;;;;;;4977586;28;20053;-65
2023/11/10 03:22:43;;;;;;;3.72;3.42;;;8.70;85.30;;;;;;4977392;28;20097;-65
2023/11/10 03:25:09;;;;;;;3.63;3.28;;;8.80;85.30;;;;;;4977849;28;20475;-64
2023/11/10 03:27:35;;;;;;;3.53;3.15;;;8.80;85.20;;;;;;4977336;28;20026;-65
2023/11/10 03:30:01;;;;;;;3.65;3.35;;;8.80;85.30;;;;;;4978105;28;20037;-65
2023/11/10 03:32:27;;;;;;;4.93;4.43;;;8.90;85.40;;;;;;4977514;28;20034;-65
2023/11/10 03:34:52;;;;;;;7.88;5.47;;;8.90;85.30;;;;;;4976349;28;20077;-65
2023/11/10 03:37:19;;;;;;;6.40;5.80;;;8.90;85.00;;;;;;4978257;28;20065;-64
2023/11/10 03:39:45;;;;;;;6.03;5.18;;;8.90;84.90;;;;;;4977698;28;20035;-64
2023/11/10 03:42:11;;;;;;;6.30;5.32;;;8.90;84.80;;;;;;4977358;28;20035;-65
2023/11/10 03:44:36;;;;;;;5.80;5.18;;;8.80;84.90;;;;;;4977338;28;20569;-64
2023/11/10 03:47:02;;;;;;;5.03;4.53;;;8.80;85.00;;;;;;4959861;28;20034;-64
2023/11/10 03:49:29;;;;;;;5.05;4.55;;;8.80;85.20;;;;;;4978440;28;20117;-65
2023/11/10 03:51:55;;;;;;;5.45;4.18;;;8.80;85.30;;;;;;4977988;28;20087;-65
2023/11/10 03:54:21;;;;;;;4.57;4.18;;;8.80;85.40;;;;;;4990337;28;20046;-65
2023/11/10 03:56:47;;;;;;;4.57;4.10;;;8.80;85.50;;;;;;4977502;28;20043;-64
2023/11/10 03:59:12;;;;;;;3.90;3.50;;;8.80;85.70;;;;;;4978094;28;20050;-63
2023/11/10 04:01:39;;;;;;;4.20;3.50;;;8.80;85.80;;;;;;4977908;28;20039;-64
2023/11/10 04:04:07;;;;;;;3.47;3.10;;;8.80;85.90;;;;;;4978760;28;20449;-64
2023/11/10 04:06:33;;;;;;;3.30;2.92;;;8.80;86.10;;;;;;4977343;28;20026;-64
2023/11/10 04:08:59;;;;;;;3.30;2.80;;;8.80;86.30;;;;;;4977668;28;20400;-64
2023/11/10 04:11:25;;;;;;;4.03;3.08;;;8.80;86.40;;;;;;4975866;28;20045;-64
2023/11/10 04:13:51;;;;;;;3.17;2.95;;;8.90;86.60;;;;;;4977215;28;20039;-64
2023/11/10 04:16:20;;;;;;;3.10;2.90;;;8.90;87.40;;;;;;4977150;28;20499;-63
2023/11/10 04:18:50;;;;;;;2.92;2.42;;;8.90;86.90;;;;;;4976155;28;20034;-64
2023/11/10 04:21:17;;;;;;;3.80;3.00;;;8.90;87.10;;;;;;4977882;28;20055;-63
2023/11/10 04:23:43;;;;;;;2.80;2.60;;;8.90;87.00;;;;;;4980823;28;20034;-63
2023/11/10 04:26:10;;;;;;;2.88;2.58;;;8.90;87.10;;;;;;4979915;28;20089;-64
2023/11/10 04:28:43;;;;;;;1.80;1.70;;;9.00;87.40;;;;;;4980501;28;20520;-63
2023/11/10 04:31:14;;;;;;;1.50;1.40;;;9.00;87.40;;;;;;4981618;28;20038;-63
2023/11/10 04:33:39;;;;;;;1.15;1.10;;;9.00;87.20;;;;;;4963456;28;20035;-63
2023/11/10 04:36:08;;;;;;;3.55;1.38;;;9.00;87.30;;;;;;4979676;28;20030;-64
2023/11/10 04:38:34;;;;;;;0.75;0.75;;;9.00;87.60;;;;;;4980966;28;20038;-63
2023/11/10 04:41:01;;;;;;;0.73;0.73;;;9.00;87.90;;;;;;4981386;28;20339;-63
2023/11/10 04:43:27;;;;;;;0.70;0.70;;;9.00;87.80;;;;;;4981098;28;20105;-63
2023/11/10 04:45:53;;;;;;;0.77;0.60;;;9.00;87.80;;;;;;4980855;28;20181;-63
2023/11/10 04:48:18;;;;;;;3.28;0.80;;;9.00;87.80;;;;;;4980666;28;20536;-64
2023/11/10 04:50:44;;;;;;;1.27;0.40;;;9.00;87.80;;;;;;4980076;28;20041;-64
2023/11/10 04:53:10;;;;;;;0.50;0.50;;;9.00;87.40;;;;;;4980493;28;20030;-61
2023/11/10 04:55:35;;;;;;;3.15;0.52;;;9.00;87.40;;;;;;4980862;28;20066;-63
2023/11/10 04:58:01;;;;;;;0.55;0.40;;;9.00;87.40;;;;;;4980363;28;20037;-63
2023/11/10 05:00:27;;;;;;;0.90;0.40;;;9.00;87.30;;;;;;4979911;28;20038;-63
2023/11/10 05:02:53;;;;;;;0.40;0.40;;;9.00;87.20;;;;;;4980642;28;20062;-63
2023/11/10 05:05:20;;;;;;;0.98;0.30;;;9.00;87.30;;;;;;4980116;28;20053;-64
2023/11/10 05:07:45;;;;;;;0.28;0.28;;;8.90;87.10;;;;;;4980077;28;20041;-62
2023/11/10 05:10:12;;;;;;;0.45;0.45;;;8.90;87.00;;;;;;4980026;28;20121;-63
2023/11/10 05:12:38;;;;;;;0.60;0.40;;;8.90;87.10;;;;;;4979435;28;20101;-63
2023/11/10 05:15:07;;;;;;;0.98;0.28;;;8.90;87.00;;;;;;4980331;28;20564;-62
2023/11/10 05:17:39;;;;;;;0.30;0.30;;;8.90;87.00;;;;;;4980260;28;20523;-62
2023/11/10 05:20:11;;;;;;;0.90;0.40;;;8.90;88.00;;;;;;4980832;28;20035;-63
2023/11/10 05:22:42;;;;;;;0.40;0.40;;;8.90;87.00;;;;;;4979423;28;20325;-63
2023/11/10 05:25:08;;;;;;;0.32;0.25;;;8.90;86.90;;;;;;4979884;28;20426;-62
2023/11/10 05:27:33;;;;;;;0.45;0.35;;;8.90;86.90;;;;;;4980607;28;20278;-63
2023/11/10 05:29:59;;;;;;;0.73;0.30;;;8.90;86.80;;;;;;4979552;28;20043;-63
2023/11/10 05:32:26;;;;;;;0.30;0.30;;;8.90;86.90;;;;;;4979546;28;20031;-63
2023/11/10 05:34:54;;;;;;;0.50;0.30;;;8.80;87.00;;;;;;4979326;28;20030;-63
2023/11/10 05:37:20;;;;;;;0.57;0.28;;;8.80;86.90;;;;;;4980065;28;20066;-63
2023/11/10 05:39:46;;;;;;;0.22;0.20;;;8.80;86.80;;;;;;4979323;28;20038;-63
2023/11/10 05:42:13;;;;;;;0.50;0.30;;;8.80;86.90;;;;;;4979722;28;20045;-63
2023/11/10 05:44:39;;;;;;;0.32;0.30;;;8.70;86.90;;;;;;4979680;28;20392;-63
2023/11/10 05:47:04;;;;;;;0.10;0.10;;;8.80;87.00;;;;;;4979031;28;20042;-62
2023/11/10 05:49:30;;;;;;;0.32;0.20;;;8.80;87.00;;;;;;4979584;28;20039;-62
2023/11/10 05:51:55;;;;;;;0.20;0.17;;;8.80;87.10;;;;;;4979241;28;20482;-63
2023/11/10 05:54:21;;;;;;;0.32;0.20;;;8.70;87.10;;;;;;4980529;28;20046;-63
2023/11/10 05:56:46;;;;;;;0.22;0.10;;;8.80;86.90;;;;;;4977921;28;20046;-63
2023/11/10 05:59:12;;;;;;;0.25;0.10;;;8.80;86.90;;;;;;4979912;28;20410;-63
2023/11/10 06:01:38;;;;;;;0.15;0.10;;;8.80;86.80;;;;;;4979747;28;20038;-63
2023/11/10 06:04:04;;;;;;;0.85;0.20;;;8.80;86.70;;;;;;4978646;28;20039;-63
2023/11/10 06:06:30;;;;;;;0.10;0.10;;;8.80;86.90;;;;;;4977744;28;20031;-63
2023/11/10 06:08:55;;;;;;;0.60;0.10;;;8.80;86.90;;;;;;4978660;28;20031;-62
2023/11/10 06:11:22;;;;;;;0.28;0.15;;;8.80;86.80;;;;;;4977868;28;20058;-63
2023/11/10 06:13:49;;;;;;;0.10;0.08;;;8.80;86.90;;;;;;4979531;28;20516;-63
2023/11/10 06:16:19;;;;;;;0.30;0.10;;;8.80;86.90;;;;;;4979493;28;20518;-64
2023/11/10 06:18:45;;;;;;;0.47;0.20;;;8.80;86.80;;;;;;4979252;28;20038;-64
2023/11/10 06:21:11;;;;;;;0.28;0.20;;;8.80;86.80;;;;;;4978867;28;20035;-63
2023/11/10 06:23:37;;;;;;;0.38;0.28;;;8.80;86.70;;;;;;4979221;28;20522;-63
2023/11/10 06:26:03;;;;;;;0.20;0.10;;;8.80;86.80;;;;;;4978792;28;20105;-63
2023/11/10 06:28:29;;;;;;;0.50;0.20;;;8.80;86.90;;;;;;4978948;28;20597;-62
2023/11/10 06:30:56;;;;;;;0.20;0.10;;;8.80;86.80;;;;;;4979160;28;20031;-63
2023/11/10 06:33:21;;;;;;;0.47;0.35;;;8.80;86.90;;;;;;4978874;28;20376;-62
2023/11/10 06:35:47;;;;;;;0.85;0.22;;;8.80;86.90;;;;;;4978550;28;20494;-63
2023/11/10 06:38:13;;;;;;;1.48;0.20;;;8.80;86.90;;;;;;4978845;28;20057;-62
2023/11/10 06:40:39;;;;;;;0.75;0.20;;;8.80;87.00;;;;;;4978176;28;20125;-63
2023/11/10 06:43:04;;;;;;;0.45;0.28;;;8.80;87.00;;;;;;4978805;28;20093;-63
2023/11/10 06:45:30;;;;;;;0.20;0.20;;;8.80;86.90;;;;;;4978364;28;20146;-63
2023/11/10 06:47:59;;;;;;;0.40;0.17;;;8.70;86.90;;;;;;4978141;28;20043;-63
2023/11/10 06:50:25;;;;;;;0.55;0.20;;;8.70;86.90;;;;;;4978035;28;20490;-63
2023/11/10 06:52:50;;;;;;;1.10;0.25;;;8.80;87.00;;;;;;4978225;28;20057;-63
2023/11/10 06:55:16;;;;;;;1.58;0.45;;;8.70;86.90;;;;;;4978446;28;20051;-63
2023/11/10 06:57:44;;;;;;;0.73;0.20;;;8.70;86.90;;;;;;4977901;28;20560;-63
2023/11/10 07:00:10;;;;;;;0.50;0.22;;;8.70;87.10;;;;;;4978352;28;20097;-63
2023/11/10 07:02:36;;;;;;;0.70;0.35;;;8.70;87.20;;;;;;4978035;28;20031;-63
2023/11/10 07:05:03;;;;;;;1.58;0.40;;;8.70;87.30;;;;;;4977321;28;20053;-63
2023/11/10 07:07:30;;;;;;;0.40;0.30;;;8.70;87.20;;;;;;4977421;28;20061;-63
2023/11/10 07:09:59;;;;;;;0.82;0.20;;;8.70;87.10;;;;;;4978239;28;20526;-63
2023/11/10 07:12:25;;;;;;;0.35;0.20;;;8.70;87.30;;;;;;4978444;28;20046;-64
2023/11/10 07:14:52;;;;;;;0.10;0.10;;;8.70;87.30;;;;;;4977613;28;20041;-63
2023/11/10 07:17:18;;;;;;;0.10;0.10;;;8.70;87.30;;;;;;4977686;28;20245;-64
2023/11/10 07:19:44;;;;;;;0.10;0.10;;;8.70;87.30;;;;;;4978245;28;20038;-63
2023/11/10 07:22:10;;;;;;;0.68;0.22;;;8.70;87.40;;;;;;4978369;28;20354;-63
2023/11/10 07:24:36;;;;;;;0.65;0.22;;;8.70;87.50;;;;;;4977521;28;20041;-63
2023/11/10 07:27:06;;;;;;;0.32;0.22;;;8.70;87.40;;;;;;4978635;28;20777;-63
2023/11/10 07:29:35;;;;;;;0.52;0.30;;;8.70;87.40;;;;;;4978176;28;20145;-63
2023/11/10 07:32:01;;;;;;;0.30;0.20;;;8.70;87.40;;;;;;4977912;28;20406;-64
2023/11/10 07:34:27;;;;;;;1.15;0.30;;;8.70;87.40;;;;;;4977686;28;20030;-63
2023/11/10 07:36:53;;;;;;;0.20;0.20;;;8.80;87.60;;;;;;4976627;28;20041;-63
2023/11/10 07:39:20;;;;;;;0.17;0.17;;;8.80;87.50;;;;;;4977808;28;20074;-63
2023/11/10 07:41:45;;;;;;;0.25;0.20;;;8.70;87.50;;;;;;4977913;28;20375;-64
2023/11/10 07:44:12;;;;;;;1.55;0.20;;;8.80;87.60;;;;;;4978209;28;20033;-63
2023/11/10 07:46:38;;;;;;;0.45;0.25;;;8.80;87.60;;;;;;4976527;28;20449;-64
2023/11/10 07:49:04;;;;;;;0.52;0.28;;;8.80;87.60;;;;;;4977691;28;20034;-64
2023/11/10 07:51:30;;;;;;;0.55;0.20;;;8.80;87.70;;;;;;4977305;28;20478;-64
2023/11/10 07:53:55;;;;;;;0.88;0.30;;;8.80;87.70;;;;;;4977970;28;20023;-63
2023/11/10 07:56:21;;;;;;;0.30;0.28;;;8.80;87.70;;;;;;4978234;28;20509;-62
2023/11/10 07:58:46;;;;;;;0.20;0.10;;;8.80;87.70;;;;;;4981238;28;20502;-63
2023/11/10 08:01:15;;;;;;;0.65;0.20;;;8.80;87.60;;;;;;4981986;28;20117;-64
2023/11/10 08:03:42;;;;;;;0.20;0.10;;;8.80;87.60;;;;;;4981678;28;20038;-64
2023/11/10 08:06:11;;;;;;;0.40;0.20;;;8.80;87.60;;;;;;4981061;28;20065;-64
2023/11/10 08:08:39;;;;;;;1.20;0.30;;;8.80;87.60;;;;;;4981068;28;20455;-64
2023/11/10 08:11:05;;;;;;;0.65;0.28;;;8.90;87.60;;;;;;4980601;28;20077;-64
2023/11/10 08:13:34;;;;;;;0.45;0.30;;;8.90;87.60;;;;;;4981379;28;20090;-64
2023/11/10 08:16:00;;;;;;;0.30;0.20;;;8.90;87.60;;;;;;4982120;28;20035;-64
2023/11/10 08:18:26;;;;;;;0.52;0.30;;;8.90;87.60;;;;;;4981630;28;20031;-63
2023/11/10 08:20:52;;;;;;;0.30;0.20;;;8.90;87.50;;;;;;4981434;28;20410;-64
2023/11/10 08:23:18;;;;;;;0.65;0.20;;;8.90;87.60;;;;;;4981566;28;20042;-64
2023/11/10 08:25:45;;;;;;;0.20;0.20;;;8.90;87.60;;;;;;4981219;28;20439;-63
2023/11/10 08:28:11;;;;;;;0.30;0.20;;;8.90;87.50;;;;;;4981707;28;20046;-64
2023/11/10 08:30:37;;;;;;;0.10;0.10;;;8.90;87.30;;;;;;4981012;28;20030;-64
2023/11/10 08:33:03;;;;;;;0.20;0.20;;;8.90;87.30;;;;;;4980907;28;20380;-64
2023/11/10 08:35:28;;;;;;;0.82;0.45;;;9.00;87.40;;;;;;4981098;28;20096;-64
2023/11/10 08:37:54;;;;;;;0.63;0.20;;;9.00;87.50;;;;;;4980515;28;20035;-64
2023/11/10 08:40:20;;;;;;;0.20;0.20;;;9.00;87.60;;;;;;4980982;28;20378;-64
2023/11/10 08:42:45;;;;;;;0.65;0.30;;;9.00;87.40;;;;;;4980368;28;20038;-64
2023/11/10 08:45:14;;;;;;;0.95;0.30;;;9.10;87.30;;;;;;4981164;28;20090;-64
2023/11/10 08:47:41;;;;;;;1.00;0.22;;;9.10;87.10;;;;;;4980838;28;20050;-64
2023/11/10 08:50:10;;;;;;;0.47;0.17;;;9.10;86.90;;;;;;4980474;28;20030;-64
2023/11/10 08:52:38;;;;;;;1.60;0.30;;;9.10;86.90;;;;;;4980755;28;20038;-64
2023/11/10 08:55:05;;;;;;;0.40;0.22;;;9.10;86.80;;;;;;4980419;28;20035;-64
2023/11/10 08:57:30;;;;;;;1.17;0.32;;;9.10;86.80;;;;;;4980386;28;20129;-64
2023/11/10 08:59:56;;;;;;;0.77;0.30;;;9.10;86.70;;;;;;4980106;28;20036;-64
2023/11/10 09:02:23;;;;;;;1.75;0.20;;;9.10;86.60;;;;;;4979765;28;20042;-64
2023/11/10 09:04:48;;;;;;;0.80;0.17;;;9.10;86.60;;;;;;4980814;28;20038;-64
2023/11/10 09:07:14;;;;;;;0.90;0.30;;;9.20;86.70;;;;;;4981779;28;20026;-64
2023/11/10 09:09:40;;;;;;;0.20;0.10;;;9.20;86.70;;;;;;4982843;28;20265;-64
2023/11/10 09:12:06;;;;;;;0.10;0.10;;;9.20;86.60;;;;;;4980380;28;20516;-64
2023/11/10 09:14:31;;;;;;;0.20;0.20;;;9.20;86.60;;;;;;4981600;28;20409;-64
2023/11/10 09:16:57;;;;;;;0.10;0.10;;;9.20;86.60;;;;;;4981575;28;20038;-64
2023/11/10 09:19:23;;;;;;;1.17;0.20;;;9.20;86.50;;;;;;4982113;28;20054;-64
2023/11/10 09:21:49;;;;;;;0.50;0.30;;;9.20;86.60;;;;;;4981756;28;20042;-64
2023/11/10 09:24:14;;;;;;;0.30;0.22;;;9.20;86.60;;;;;;4981898;28;20036;-64
2023/11/10 09:26:41;;;;;;;0.30;0.20;;;9.20;86.60;;;;;;4981602;28;20031;-64
2023/11/10 09:29:07;;;;;;;0.45;0.30;;;9.20;86.70;;;;;;4981365;28;20437;-64
2023/11/10 09:31:32;;;;;;;0.28;0.28;;;9.20;86.60;;;;;;4982187;28;20122;-64
2023/11/10 09:33:58;;;;;;;0.65;0.20;;;9.20;86.60;;;;;;4981600;28;20568;-64
2023/11/10 09:36:25;;;;;;;0.20;0.20;;;9.20;86.80;;;;;;4980312;28;20085;-64
2023/11/10 09:38:51;;;;;;;1.52;0.80;;;9.20;86.60;;;;;;4981615;28;20060;-64
2023/11/10 09:41:22;;;;;;;0.98;0.60;;;9.20;86.50;;;;;;4981405;28;20114;-64
2023/11/10 09:43:49;;;;;;;0.50;0.40;;;9.20;86.50;;;;;;4981551;28;20047;-65
2023/11/10 09:46:18;;;;;;;0.95;0.20;;;9.30;86.60;;;;;;4980378;28;20093;-64
2023/11/10 09:48:44;;;;;;;0.45;0.30;;;9.20;86.60;;;;;;4980310;28;20120;-64
2023/11/10 09:51:14;;;;;;;0.60;0.32;;;9.30;86.70;;;;;;4981314;28;20034;-64
2023/11/10 09:53:41;;;;;;;1.25;0.30;;;9.30;86.70;;;;;;4980872;28;20161;-64
2023/11/10 09:56:10;;;;;;;0.55;0.30;;;9.30;86.50;;;;;;4980534;28;20044;-64
2023/11/10 09:58:36;;;;;;;0.40;0.40;;;9.40;86.60;;;;;;4980545;28;20030;-64
2023/11/10 10:01:02;;;;;;;0.30;0.30;;;9.40;86.40;;;;;;4981568;28;20077;-64
2023/11/10 10:03:28;;;;;;;1.58;0.25;;;9.40;86.40;;;;;;4980633;28;20038;-64
2023/11/10 10:05:54;;;;;;;0.63;0.30;;;9.50;86.40;;;;;;4980729;28;20038;-64
2023/11/10 10:08:20;;;;;;;0.30;0.20;;;9.50;86.50;;;;;;4980981;28;20042;-63
2023/11/10 10:10:52;;;;;;;0.30;0.20;;;9.60;86.40;;;;;;4978793;28;20410;-64
2023/11/10 10:13:19;;;;;;;0.45;0.32;;;9.60;86.40;;;;;;4981364;28;20507;-65
2023/11/10 10:15:45;;;;;;;0.50;0.30;;;9.60;86.40;;;;;;4981086;28;20502;-64
2023/11/10 10:18:10;;;;;;;0.38;0.25;;;9.70;86.60;;;;;;4981335;28;20042;-64
2023/11/10 10:20:40;;;;;;;0.63;0.20;;;9.60;86.50;;;;;;4979624;28;20475;-64
2023/11/10 10:23:09;;;;;;;0.52;0.20;;;9.70;86.30;;;;;;4981177;28;20039;-64
2023/11/10 10:25:35;;;;;;;0.28;0.20;;;9.80;86.00;;;;;;4980157;28;20035;-64
2023/11/10 10:28:02;;;;;;;0.30;0.10;;;9.80;85.80;;;;;;4981417;28;20053;-64
2023/11/10 10:30:27;;;;;;;0.57;0.10;;;9.90;85.70;;;;;;4979971;28;20121;-64
2023/11/10 10:32:54;;;;;;;0.10;0.10;;;9.90;85.30;;;;;;4980958;28;20110;-64
2023/11/10 10:35:21;;;;;;;0.38;0.22;;;9.90;84.50;;;;;;4980576;28;20806;-64
2023/11/10 10:37:53;;;;;;;0.45;0.20;;;10.00;84.50;;;;;;4980005;28;20053;-64
2023/11/10 10:40:20;;;;;;;0.80;0.20;;;10.00;84.60;;;;;;4980903;28;20471;-65
2023/11/10 10:42:46;;;;;;;0.20;0.20;;;10.00;84.50;;;;;;4980184;28;20038;-64
2023/11/10 10:45:13;;;;;;;0.10;0.10;;;10.10;84.40;;;;;;4980211;28;20033;-64
2023/11/10 10:47:40;;;;;;;0.63;0.20;;;10.10;83.90;;;;;;4979313;28;20091;-64
2023/11/10 10:50:10;;;;;;;0.47;0.30;;;10.10;84.00;;;;;;4980412;28;20194;-64
2023/11/10 10:52:36;;;;;;;0.20;0.10;;;10.10;84.10;;;;;;4979865;28;20031;-64
2023/11/10 10:55:05;;;;;;;2.17;0.15;;;10.10;84.00;;;;;;4979384;28;20035;-64
2023/11/10 10:57:33;;;;;;;0.60;0.30;;;10.20;84.10;;;;;;4980076;28;20026;-64
2023/11/10 11:00:00;;;;;;;3.83;0.35;;;10.20;84.10;;;;;;4980425;28;20045;-64
2023/11/10 11:02:27;;;;;;;2.20;0.20;;;10.30;83.90;;;;;;4978672;28;20039;-64
2023/11/10 11:05:04;;;;;;;0.52;0.20;;;10.30;83.30;;;;;;4979546;28;20031;-64
2023/11/10 11:07:32;;;;;;;2.88;0.30;;;10.40;82.00;;;;;;4980570;28;20066;-64
2023/11/10 11:10:26;;;;;;;1.05;0.20;;;10.40;81.90;;;;;;4979431;28;20450;-64
2023/11/10 11:13:13;;;;;;;0.85;0.20;;;10.50;81.60;;;;;;4979398;28;20058;-64
2023/11/10 11:16:00;;;;;;;1.77;0.15;;;10.50;81.00;;;;;;4979435;28;20027;-64
2023/11/10 11:18:40;;;;;;;1.08;0.10;;;10.60;80.40;;;;;;4980254;28;20033;-64
2023/11/10 11:21:06;;;;;;;0.32;0.32;;;10.60;80.30;;;;;;4980437;28;20061;-64
2023/11/10 11:23:35;;;;;;;1.45;0.10;;;10.60;80.00;;;;;;4979349;28;20065;-64
2023/11/10 11:26:01;;;;;;;1.15;0.32;;;10.70;80.40;;;;;;4979996;28;20042;-64
2023/11/10 11:28:36;;;;;;;0.63;0.20;;;10.70;80.50;;;;;;4978996;28;20093;-65
2023/11/10 11:31:08;;;;;;;;;;;10.70;79.50;;;;;;4980705;28;20035;-64
2023/11/10 11:33:55;;;;;;;2.42;0.15;;;10.80;79.40;;;;;;4979641;28;19913;-64
2023/11/10 11:36:24;;;;;;;0.43;0.20;;;10.90;78.50;;;;;;4978701;28;20038;-64
2023/11/10 11:38:51;;;;;;;0.30;0.10;;;10.90;79.30;;;;;;4978777;28;20034;-65
2023/11/10 11:41:18;;;;;;;1.75;0.30;;;10.90;78.50;;;;;;4979206;28;20035;-65
2023/11/10 11:43:54;;;;;;;0.30;0.30;;;11.00;78.90;;;;;;4979753;28;20445;-65
2023/11/10 11:46:20;;;;;;;1.27;0.30;;;11.00;78.10;;;;;;4978874;28;20502;-64
2023/11/10 11:48:47;;;;;;;0.90;0.30;;;11.00;78.30;;;;;;4978625;28;20057;-64
2023/11/10 11:51:14;;;;;;;1.73;0.30;;;11.00;77.50;;;;;;4980363;28;20031;-65
2023/11/10 11:53:40;;;;;;;1.05;0.30;;;11.00;77.90;;;;;;4978996;28;20038;-64
2023/11/10 11:56:07;;;;;;;1.45;0.20;;;10.90;77.50;;;;;;4978917;28;20391;-64
2023/11/10 11:58:34;;;;;;;2.38;0.30;;;10.90;77.90;;;;;;4979218;28;20028;-65
2023/11/10 12:01:00;;;;;;;0.68;0.22;;;10.90;78.00;;;;;;4979407;28;20035;-65
2023/11/10 12:03:27;;;;;;;1.30;0.40;;;10.90;78.40;;;;;;4979288;28;20046;-64
2023/11/10 12:05:55;;;;;;;0.52;0.20;;;10.90;78.30;;;;;;4978602;28;20066;-64
2023/11/10 12:08:21;;;;;;;1.10;0.20;;;11.00;78.40;;;;;;4980085;28;20863;-64
2023/11/10 12:10:48;;;;;;;0.70;0.20;;;11.00;78.30;;;;;;4977173;28;20061;-64
2023/11/10 12:13:16;;;;;;;0.95;0.30;;;11.00;78.40;;;;;;4978760;28;20054;-64
2023/11/10 12:15:42;;;;;;;0.30;0.20;;;11.00;77.90;;;;;;4979204;28;20514;-64
2023/11/10 12:18:08;;;;;;;1.70;0.40;;;11.10;77.90;;;;;;4978744;28;20049;-64
2023/11/10 12:20:35;;;;;;;2.85;0.40;;;11.10;77.50;;;;;;4978723;28;20045;-65
2023/11/10 12:23:01;;;;;;;0.80;0.30;;;11.10;77.40;;;;;;4979923;28;20497;-65
2023/11/10 12:25:27;;;;;;;1.23;0.35;;;11.10;77.50;;;;;;4978468;28;20069;-64
2023/11/10 12:27:54;;;;;;;0.55;0.35;;;11.20;77.20;;;;;;4978575;28;20070;-65
2023/11/10 12:30:20;;;;;;;0.47;0.40;;;11.20;77.20;;;;;;4979532;28;20118;-65
2023/11/10 12:32:51;;;;;;;0.95;0.40;;;11.30;77.20;;;;;;4978659;28;20061;-64
2023/11/10 12:35:20;;;;;;;1.08;0.30;;;11.30;76.70;;;;;;4979178;28;20042;-65
2023/11/10 12:37:46;;;;;;;0.50;0.30;;;11.30;76.00;;;;;;4979593;28;20064;-65
2023/11/10 12:40:17;;;;;;;0.77;0.32;;;11.30;75.30;;;;;;4979234;28;20058;-65
2023/11/10 12:42:42;;;;;;;2.08;0.65;;;11.20;75.20;;;;;;4980519;28;20094;-65
2023/11/10 12:45:09;;;;;;;2.05;0.50;;;11.20;75.10;;;;;;4981561;28;20026;-65
2023/11/10 12:47:42;;;;;;;3.08;0.60;;;11.20;75.10;;;;;;4982576;28;20043;-64
2023/11/10 12:50:16;;;;;;;1.90;0.50;;;11.10;74.90;;;;;;4982814;28;20047;-64
2023/11/10 12:52:43;;;;;;;0.63;0.40;;;11.10;74.20;;;;;;4982684;28;20066;-64